Details From LPFR - Faro
To LXGB - Gibraltar
Flight Number -
Tags decoded
Created
Modified
Stats Distance 138 nm / 255 km
Max Altitude 0 ft / 0 m
Waypoints 3
Social Downloads 0
Likes 0
Share VATSIM

Download

Looking for another format? Having issues loading an existing format? Contact us
Advertisement - Login to hide

Notes

Requested: LPFR VJF LXGB

Route

LPFR VJF LXGB

ID Type Via Altitude Latitude Longitude Leg Dist Tot Dist Heading (true) Name
O LPFR APT - 0 ft / 0 m 37.01534˚ -7.97233˚ - 0 nm - Faro
VJF VOR - 0 ft / 0 m 36.24718˚ -5.97187˚ 106 nm 106 nm 115° / 116° VEJER VOR-DME
O LXGB APT - 0 ft / 0 m 36.15121˚ -5.34966˚ 30 nm 137 nm 101° / 101° Gibraltar

Altitude Profile

Advertisement - Login to hide

LPFR

Details ICAO LPFR (FAO)
Name Faro
Region Portugal
Timezone Europe/Lisbon (UTC+1.0)
Stats Elevation 24 ft / 7 m (AMSL)
Location 37.015336° -7.972327°
Runways 1
Magnetic Variation 1.884° W

METAR

LPFR 221930Z 26007KT CAVOK 17/13 Q1014

Decode

TAF

TAF LPFR 221700Z 2218/2318 26007KT 9999 FEW020 BECMG 2222/2224 33005KT CAVOK BECMG 2309/2312 24008KT BECMG 2314/2317 27013KT 9999 FEW025 SCT040 PROB40 TEMPO 2314/2318 8000 SHRA BKN025 FEW030TCU

Decode

Departure Runways

ID Width Length Bearing (true) Bearing (mag) Surface Threshold Offset Overrun Length
10 148 ft / 45 m 8,148 ft / 2,484 m 100.08° 101.96° Asphalt 148 ft / 45 m 0 ft / 0 m
28 148 ft / 45 m 8,148 ft / 2,484 m 280.10° 281.98° Asphalt 148 ft / 45 m 0 ft / 0 m

LXGB

Details ICAO LXGB (GIB)
Name Gibraltar
Region Gibralter
Timezone Europe/Gibraltar (UTC+2.0)
Stats Elevation 15 ft / 5 m (AMSL)
Location 36.151209° -5.349664°
Runways 1
Magnetic Variation 1.073° W

METAR

LXGB 221850Z 30002KT 9000 HZ BKN300 21/14 Q1013 NOSIG

Decode

TAF

Not found

Destination Runways

ID Width Length Bearing (true) Bearing (mag) Surface Threshold Offset Overrun Length
27 151 ft / 46 m 5,992 ft / 1,826 m 267.56° 268.63° Asphalt 367 ft / 112 m 89 ft / 27 m
9 151 ft / 46 m 5,992 ft / 1,826 m 87.54° 88.61° Asphalt 299 ft / 91 m 52 ft / 16 m

Popular Alternatives